Ardmore, OK

3:40 AM CDT on August 30, 2014 (GMT -0500)
Ardmore Downtown | Change Station
CLOSE
Current Station
Airport
Location: Ardmore Downtown,
Elevation: 843 ft
Nearby Weather Stations

Elev 843 ft 34.15 °N, 97.12 °W | Updated 5 minutes ago

Clear
Clear
72 °F
Feels Like 72 °F
N
0
Wind Variable Wind from North

Today
High -- | Low -- °F
--% Chance of Precip.
Yesterday
High -- | Low -- °F
Precip. -- in
7:00 AM 7:57 PM
Waxing Crescent, 20% visible
Pressure 29.94 in
Visibility 10.0 miles
Clouds Clear
Dew Point 70 °F
Humidity 94%
Rainfall 0.00 in
Snow Depth Not available.
UV 0 out of 12
Pollen 8.50 out of 12
Air Quality Not available.
Flu Activity Not available.
METAR K1F0 300835Z AUTO 00000KT 10SM CLR 22/21 A2994 RMK AO2

More Conditions Fewer Conditions

Pressure 29.94 in
Visibility 10.0 miles
Clouds Clear
Dew Point 70 °F
Humidity 94%
Rainfall 0.00 in
Snow Depth Not available.
UV 0 out of 12
Pollen 8.50 out of 12
Air Quality Not available.
Flu Activity Not available.
METAR K1F0 300835Z AUTO 00000KT 10SM CLR 22/21 A2994 RMK AO2

More Conditions Fewer Conditions

10-Day Weather Forecast

Almanac

Astronomy

Aug. 30, 2014 Rise Set
Actual Time 7:00 AM CDT 7:57 PM CDT
Civil Twilight 6:34 AM CDT 8:22 PM CDT
Nautical Twilight 6:04 AM CDT 8:52 PM CDT
Astronomical Twilight 5:33 AM CDT 9:24 PM CDT
Moon 11:35 AM CDT 10:47 PM CDT
Length of Visible Light 13h 47m
Length of Day
12h 56m
Tomorrow will be 2m 1s shorter.
Waxing Crescent, 20% of the Moon is Illuminated
Today
Waxing Crescent
Sep 2
First Quarter
Sep 8
Full
Sep 15
Last Quarter
Sep 24
New

Today's Extremes

State Highs State Lows

Community

WunderPhotos

Upload Photos

1,748,474 photos uploaded!

Nearby

Snow Depth

Station Depth Elevation
No new snow has been reported.

Earthquake Activity

City Distance Mag. Time & Date
Guthrie, Oklahoma 117 miles 3.2 10:39 AM CDT
2014-08-29
Minimum magnitude displayed is 2.5.

Coastal Water Temperatures

Place Temperature
No Stations Reporting

Nearby Weather Stations